createdAt,value
2018-05-29T00:01:11.220Z,21.10
2018-05-29T00:03:39.526Z,21.00
2018-05-29T00:06:07.831Z,21.00
2018-05-29T00:08:36.160Z,21.00
2018-05-29T00:11:04.630Z,20.90
2018-05-29T00:13:33.746Z,20.90
2018-05-29T00:16:05.033Z,20.80
2018-05-29T00:18:33.378Z,20.80
2018-05-29T00:21:03.044Z,20.80
2018-05-29T00:23:31.466Z,20.70
2018-05-29T00:26:01.642Z,20.70
2018-05-29T00:28:30.138Z,20.60
2018-05-29T00:30:58.473Z,20.60
2018-05-29T00:33:26.785Z,20.60
2018-05-29T00:35:56.217Z,20.60
2018-05-29T00:38:24.559Z,20.50
2018-05-29T00:40:52.891Z,20.50
2018-05-29T00:43:21.194Z,20.50
2018-05-29T00:45:49.556Z,20.40
2018-05-29T00:48:18.651Z,20.40
2018-05-29T00:50:47.220Z,20.40
2018-05-29T00:53:15.555Z,20.30
2018-05-29T00:55:43.958Z,20.30
2018-05-29T00:58:12.300Z,20.30
2018-05-29T01:00:41.382Z,20.20
2018-05-29T01:03:10.472Z,20.20
2018-05-29T01:05:38.783Z,20.20
2018-05-29T01:08:07.894Z,20.10
2018-05-29T01:10:36.251Z,20.00
2018-05-29T01:13:04.546Z,20.10
2018-05-29T01:15:33.647Z,20.00
2018-05-29T01:18:01.969Z,20.00
2018-05-29T01:20:30.289Z,20.00
2018-05-29T01:22:59.390Z,19.90
2018-05-29T01:25:28.485Z,19.90
2018-05-29T01:27:56.791Z,19.90
2018-05-29T01:30:25.146Z,19.90
2018-05-29T01:32:53.474Z,19.80
2018-05-29T01:35:21.792Z,19.80
2018-05-29T01:37:50.141Z,19.80
2018-05-29T01:40:18.464Z,19.80
2018-05-29T01:42:46.826Z,19.80
2018-05-29T01:45:15.928Z,19.80
2018-05-29T01:47:44.284Z,19.80
2018-05-29T01:50:12.610Z,19.80
2018-05-29T01:52:40.956Z,19.80
2018-05-29T01:55:09.284Z,19.80
2018-05-29T01:57:38.361Z,19.70
2018-05-29T02:00:06.708Z,19.70
2018-05-29T02:02:35.029Z,19.70
2018-05-29T02:05:03.382Z,19.70
2018-05-29T02:07:31.698Z,19.60
2018-05-29T02:10:00.106Z,19.60
2018-05-29T02:12:29.171Z,19.50
2018-05-29T02:14:57.498Z,19.50
2018-05-29T02:17:25.811Z,19.50
2018-05-29T02:19:54.154Z,19.50
2018-05-29T02:22:22.620Z,19.50
2018-05-29T02:24:50.943Z,19.50
2018-05-29T02:27:19.263Z,19.40
2018-05-29T02:29:47.614Z,19.40
2018-05-29T02:32:15.988Z,19.40
2018-05-29T02:34:44.307Z,19.40
2018-05-29T02:37:12.653Z,19.30
2018-05-29T02:39:40.971Z,19.30
2018-05-29T02:42:09.292Z,19.40
2018-05-29T02:44:38.626Z,19.40
2018-05-29T02:47:06.937Z,19.40
2018-05-29T02:49:35.297Z,19.50
2018-05-29T02:52:03.633Z,19.50
2018-05-29T02:54:32.755Z,19.40
2018-05-29T02:57:01.048Z,19.40
2018-05-29T02:59:29.410Z,19.40
2018-05-29T03:01:57.812Z,19.40
2018-05-29T03:04:26.124Z,19.30
2018-05-29T03:06:55.302Z,19.30
2018-05-29T03:09:23.624Z,19.30
2018-05-29T03:11:53.085Z,19.20
2018-05-29T03:14:21.595Z,19.20
2018-05-29T03:16:50.048Z,19.20
2018-05-29T03:19:18.507Z,19.20
2018-05-29T03:21:47.625Z,19.20
2018-05-29T03:24:17.599Z,19.20
2018-05-29T03:26:47.015Z,19.10
2018-05-29T03:29:15.342Z,19.20
2018-05-29T03:31:43.659Z,19.20
2018-05-29T03:34:11.999Z,19.20
2018-05-29T03:36:40.318Z,19.20
2018-05-29T03:39:08.646Z,19.20
2018-05-29T03:41:36.971Z,19.30
2018-05-29T03:44:05.335Z,19.30
2018-05-29T03:46:33.656Z,19.30
2018-05-29T03:49:02.010Z,19.40
2018-05-29T03:51:30.331Z,19.40
2018-05-29T03:53:59.420Z,19.50
2018-05-29T03:56:27.754Z,19.40
2018-05-29T03:58:56.116Z,19.50
2018-05-29T04:01:24.466Z,19.50
2018-05-29T04:03:52.774Z,19.60
2018-05-29T04:06:21.211Z,19.60
2018-05-29T04:08:49.546Z,19.70
2018-05-29T04:11:18.650Z,19.80
2018-05-29T04:13:46.976Z,19.80
2018-05-29T04:16:15.312Z,19.90
2018-05-29T04:18:43.649Z,20.00
2018-05-29T04:21:12.456Z,20.10
2018-05-29T04:23:42.556Z,20.20
2018-05-29T04:26:11.572Z,20.20
2018-05-29T04:28:39.955Z,20.30
2018-05-29T04:31:08.262Z,20.40
2018-05-29T04:33:36.618Z,20.50
2018-05-29T04:36:04.936Z,20.60
2018-05-29T04:38:33.258Z,20.70
2018-05-29T04:41:01.617Z,20.80
2018-05-29T04:43:29.990Z,20.80
2018-05-29T04:45:58.323Z,21.00
2018-05-29T04:48:26.643Z,21.00
2018-05-29T04:50:54.993Z,21.10
2018-05-29T04:53:24.085Z,21.30
2018-05-29T04:55:52.459Z,21.30
2018-05-29T04:58:20.790Z,21.40
2018-05-29T05:00:49.178Z,21.60
2018-05-29T05:03:17.538Z,21.70
2018-05-29T05:05:46.601Z,21.90
2018-05-29T05:08:14.995Z,21.90
2018-05-29T05:10:43.341Z,22.00
2018-05-29T05:13:11.710Z,22.20
2018-05-29T05:15:40.030Z,22.50
2018-05-29T05:18:08.381Z,22.90
2018-05-29T05:20:36.691Z,23.30
2018-05-29T05:23:05.019Z,23.70
2018-05-29T05:25:33.363Z,23.90
2018-05-29T05:28:01.690Z,24.10
2018-05-29T05:30:30.053Z,24.30
2018-05-29T05:32:59.131Z,24.80
2018-05-29T05:35:28.225Z,25.00
2018-05-29T05:37:56.525Z,24.90
2018-05-29T05:40:25.629Z,25.20
2018-05-29T05:42:54.713Z,25.40
2018-05-29T05:45:23.048Z,25.40
2018-05-29T05:47:51.377Z,25.70
2018-05-29T05:50:20.455Z,26.10
2018-05-29T05:52:48.878Z,26.10
2018-05-29T05:55:17.162Z,26.40
2018-05-29T05:57:46.740Z,26.80
2018-05-29T06:00:15.045Z,27.30
2018-05-29T06:02:45.370Z,27.90
2018-05-29T06:05:13.875Z,27.90
2018-05-29T06:07:42.206Z,28.50
2018-05-29T06:10:10.594Z,29.00
2018-05-29T06:12:39.141Z,29.40
2018-05-29T06:15:07.471Z,30.00
2018-05-29T06:17:35.805Z,30.00
2018-05-29T06:20:04.459Z,29.90
2018-05-29T06:22:33.533Z,29.60
2018-05-29T06:25:01.834Z,29.60
2018-05-29T06:27:30.955Z,29.70
2018-05-29T06:29:59.336Z,29.60
2018-05-29T06:32:28.421Z,30.00
2018-05-29T06:34:57.521Z,30.20
2018-05-29T06:37:25.838Z,30.20
2018-05-29T06:39:54.145Z,30.50
2018-05-29T06:42:22.488Z,31.00
2018-05-29T06:44:50.804Z,31.60
2018-05-29T06:47:19.148Z,31.90
2018-05-29T06:49:47.481Z,31.90
2018-05-29T06:52:16.593Z,32.20
2018-05-29T06:54:44.891Z,32.10
2018-05-29T06:57:13.991Z,32.80
2018-05-29T06:59:42.323Z,32.80
2018-05-29T07:02:10.692Z,33.70
2018-05-29T07:04:39.073Z,34.60
2018-05-29T07:07:07.406Z,35.10
2018-05-29T07:09:36.534Z,36.50
2018-05-29T07:12:04.960Z,36.50
2018-05-29T07:14:33.318Z,37.00
2018-05-29T07:17:02.410Z,37.20
2018-05-29T07:19:30.762Z,37.20
2018-05-29T07:21:59.095Z,37.80
2018-05-29T07:24:27.409Z,38.50
2018-05-29T07:26:55.747Z,38.30
2018-05-29T07:29:24.093Z,38.50
2018-05-29T07:31:52.434Z,38.90
2018-05-29T07:34:20.753Z,39.20
2018-05-29T07:36:50.054Z,39.30
2018-05-29T07:39:19.148Z,39.10
2018-05-29T07:41:48.240Z,39.40
2018-05-29T07:44:16.555Z,39.40
2018-05-29T07:46:44.884Z,39.70
2018-05-29T07:49:13.190Z,39.60
2018-05-29T07:51:42.344Z,39.20
2018-05-29T07:54:10.663Z,39.20
2018-05-29T07:56:38.983Z,39.20
2018-05-29T07:59:07.317Z,39.60
2018-05-29T08:01:35.628Z,39.60
2018-05-29T08:04:03.961Z,39.60
2018-05-29T08:06:32.275Z,39.50
2018-05-29T08:09:01.361Z,39.40
2018-05-29T08:11:29.695Z,39.30
2018-05-29T08:13:58.049Z,39.50
2018-05-29T08:16:26.377Z,39.90
2018-05-29T08:18:54.713Z,40.40
2018-05-29T08:21:23.793Z,40.60
2018-05-29T08:23:52.890Z,40.20
2018-05-29T08:26:21.979Z,40.00
2018-05-29T08:28:50.396Z,40.00
2018-05-29T08:31:18.756Z,39.80
2018-05-29T08:33:47.067Z,40.40
2018-05-29T08:36:15.426Z,41.40
2018-05-29T08:38:44.518Z,42.60
2018-05-29T08:41:12.867Z,42.60
2018-05-29T08:43:41.455Z,43.30
2018-05-29T08:46:10.545Z,44.30
2018-05-29T08:48:40.162Z,44.30
2018-05-29T08:51:08.561Z,44.20
2018-05-29T08:53:37.351Z,43.90
2018-05-29T08:56:05.827Z,43.80
2018-05-29T08:58:35.869Z,44.20
2018-05-29T09:01:04.182Z,44.20
2018-05-29T09:03:33.727Z,44.60
2018-05-29T09:06:02.032Z,44.60
2018-05-29T09:08:30.351Z,44.60
2018-05-29T09:10:58.658Z,44.50
2018-05-29T09:13:26.989Z,43.30
2018-05-29T09:15:56.074Z,44.00
2018-05-29T09:18:24.438Z,43.90
2018-05-29T09:20:52.758Z,44.30
2018-05-29T09:23:21.846Z,44.00
2018-05-29T09:25:50.175Z,44.00
2018-05-29T09:28:18.499Z,43.60
2018-05-29T09:30:46.855Z,43.30
2018-05-29T09:33:15.202Z,43.40
2018-05-29T09:35:43.497Z,43.00
2018-05-29T09:38:12.685Z,42.30
2018-05-29T09:40:41.770Z,42.10
2018-05-29T09:43:10.839Z,42.70
2018-05-29T09:45:39.964Z,43.20
2018-05-29T09:48:09.066Z,43.30
2018-05-29T09:50:38.184Z,43.00
2018-05-29T09:53:06.494Z,42.90
2018-05-29T09:55:34.819Z,42.80
2018-05-29T09:58:03.147Z,42.20
2018-05-29T10:00:37.098Z,42.10
2018-05-29T10:03:05.434Z,42.30
2018-05-29T10:05:33.771Z,42.30
2018-05-29T10:08:02.100Z,43.10
2018-05-29T10:10:30.413Z,43.10
2018-05-29T10:12:58.753Z,43.10
2018-05-29T10:15:27.053Z,42.40
2018-05-29T10:17:55.404Z,42.10
2018-05-29T10:20:23.738Z,42.30
2018-05-29T10:22:52.088Z,42.60
2018-05-29T10:25:20.414Z,42.80
2018-05-29T10:27:48.748Z,43.00
2018-05-29T10:30:17.090Z,42.70
2018-05-29T10:32:46.175Z,42.40
2018-05-29T10:35:14.506Z,42.50
2018-05-29T10:37:42.825Z,43.00
2018-05-29T10:40:11.188Z,43.70
2018-05-29T10:42:39.524Z,43.90
2018-05-29T10:45:08.612Z,43.10
2018-05-29T10:47:37.724Z,42.70
2018-05-29T10:50:06.080Z,42.60
2018-05-29T10:52:34.438Z,42.30
2018-05-29T10:55:02.759Z,42.30
2018-05-29T10:57:31.060Z,42.40
2018-05-29T10:59:59.415Z,42.30
2018-05-29T11:02:27.747Z,42.30
2018-05-29T11:04:56.056Z,42.10
2018-05-29T11:07:24.393Z,41.70
2018-05-29T11:09:52.719Z,42.00
2018-05-29T11:12:21.052Z,42.00
2018-05-29T11:14:49.380Z,42.00
2018-05-29T11:17:17.700Z,42.40
2018-05-29T11:19:46.802Z,42.00
2018-05-29T11:22:15.935Z,42.00
2018-05-29T11:24:44.235Z,42.00
2018-05-29T11:27:12.582Z,42.30
2018-05-29T11:29:40.912Z,42.20
2018-05-29T11:32:09.233Z,42.00
2018-05-29T11:34:37.605Z,42.00
2018-05-29T11:37:06.668Z,41.90
2018-05-29T11:39:35.012Z,41.90
2018-05-29T11:42:03.319Z,41.60
2018-05-29T11:44:32.935Z,41.50
2018-05-29T11:47:01.462Z,41.20
2018-05-29T11:49:31.663Z,39.90
2018-05-29T11:52:00.889Z,39.10
2018-05-29T11:54:30.728Z,38.80
2018-05-29T11:56:59.249Z,38.70
2018-05-29T11:59:28.344Z,38.60
2018-05-29T12:01:56.649Z,38.40
2018-05-29T12:04:25.625Z,38.50
2018-05-29T12:06:54.003Z,38.50
2018-05-29T12:09:22.308Z,38.10
2018-05-29T12:11:50.636Z,37.80
2018-05-29T12:14:18.967Z,37.50
2018-05-29T12:16:47.311Z,37.30
2018-05-29T12:19:15.646Z,37.70
2018-05-29T12:21:44.770Z,37.80
2018-05-29T12:24:13.854Z,37.90
2018-05-29T12:26:42.934Z,38.10
2018-05-29T12:29:11.241Z,38.10
2018-05-29T12:31:40.352Z,37.60
2018-05-29T12:34:08.695Z,37.60
2018-05-29T12:36:37.018Z,37.30
2018-05-29T12:39:06.129Z,37.30
2018-05-29T12:41:34.471Z,37.60
2018-05-29T12:44:03.564Z,37.90
2018-05-29T12:46:32.658Z,38.20
2018-05-29T12:49:01.003Z,38.30
2018-05-29T12:51:29.311Z,38.30
2018-05-29T12:53:57.651Z,37.80
2018-05-29T12:56:25.971Z,37.10
2018-05-29T12:58:54.338Z,37.00
2018-05-29T13:01:22.660Z,37.10
2018-05-29T13:03:51.782Z,37.60
2018-05-29T13:06:20.110Z,37.60
2018-05-29T13:08:48.431Z,37.90
2018-05-29T13:11:17.553Z,37.80
2018-05-29T13:13:45.846Z,37.80
2018-05-29T13:16:14.204Z,38.10
2018-05-29T13:18:42.515Z,38.50
2018-05-29T13:21:11.770Z,38.60
2018-05-29T13:23:40.824Z,39.00
2018-05-29T13:26:09.159Z,39.00
2018-05-29T13:28:38.263Z,38.70
2018-05-29T13:31:06.608Z,38.70
2018-05-29T13:33:35.026Z,38.70
2018-05-29T13:36:03.363Z,38.90
2018-05-29T13:38:31.728Z,38.60
2018-05-29T13:41:00.069Z,38.60
2018-05-29T13:43:29.182Z,39.20
2018-05-29T13:45:57.531Z,39.20
2018-05-29T13:48:26.629Z,39.50
2018-05-29T13:50:55.751Z,39.70
2018-05-29T13:53:24.107Z,39.80
2018-05-29T13:55:52.434Z,39.70
2018-05-29T13:58:20.817Z,39.50
2018-05-29T14:00:49.131Z,39.60
2018-05-29T14:03:17.485Z,39.40
2018-05-29T14:05:45.821Z,39.40
2018-05-29T14:08:14.126Z,39.60
2018-05-29T14:10:42.499Z,39.40
2018-05-29T14:13:11.651Z,39.20
2018-05-29T14:15:40.009Z,39.20
2018-05-29T14:18:08.494Z,39.20
2018-05-29T14:20:36.863Z,38.90
2018-05-29T14:23:05.945Z,38.70
2018-05-29T14:25:35.095Z,38.70
2018-05-29T14:28:03.416Z,38.70
2018-05-29T14:30:32.570Z,38.70
2018-05-29T14:33:01.743Z,38.70
2018-05-29T14:35:30.143Z,38.40
2018-05-29T14:37:58.601Z,38.60
2018-05-29T14:40:27.578Z,38.70
2018-05-29T14:42:56.808Z,38.50
2018-05-29T14:45:26.268Z,38.50
2018-05-29T14:47:54.771Z,38.70
2018-05-29T14:50:24.870Z,39.00
2018-05-29T14:52:53.269Z,38.90
2018-05-29T14:55:21.611Z,38.80
2018-05-29T14:57:50.019Z,38.50
2018-05-29T15:00:18.721Z,38.10
2018-05-29T15:02:47.073Z,38.20
2018-05-29T15:05:15.459Z,38.20
2018-05-29T15:07:43.746Z,38.20
2018-05-29T15:10:12.089Z,38.30
2018-05-29T15:12:40.422Z,38.10
2018-05-29T15:15:08.767Z,38.00
2018-05-29T15:17:37.095Z,37.40
2018-05-29T15:20:05.450Z,36.20
2018-05-29T15:22:33.794Z,35.30
2018-05-29T15:25:02.127Z,34.60
2018-05-29T15:27:30.450Z,34.00
2018-05-29T15:29:59.520Z,33.40
2018-05-29T15:32:27.852Z,33.30
2018-05-29T15:34:56.196Z,33.20
2018-05-29T15:37:25.292Z,32.80
2018-05-29T15:39:55.082Z,32.80
2018-05-29T15:42:23.496Z,32.70
2018-05-29T15:44:52.586Z,32.40
2018-05-29T15:47:20.937Z,32.40
2018-05-29T15:49:49.269Z,32.30
2018-05-29T15:52:18.363Z,32.10
2018-05-29T15:54:47.529Z,32.10
2018-05-29T15:57:15.842Z,32.00
2018-05-29T15:59:44.934Z,31.80
2018-05-29T16:02:14.199Z,31.70
2018-05-29T16:04:42.535Z,31.70
2018-05-29T16:07:10.949Z,31.60
2018-05-29T16:09:40.059Z,31.60
2018-05-29T16:12:08.391Z,31.60
2018-05-29T16:14:37.648Z,31.50
2018-05-29T16:17:06.000Z,31.50
2018-05-29T16:19:34.401Z,31.50
2018-05-29T16:22:03.008Z,31.40
2018-05-29T16:24:31.340Z,31.30
2018-05-29T16:26:59.862Z,31.30
2018-05-29T16:29:28.225Z,31.20
2018-05-29T16:31:56.612Z,31.20
2018-05-29T16:34:24.996Z,31.10
2018-05-29T16:36:53.398Z,31.10
2018-05-29T16:39:21.803Z,31.00
2018-05-29T16:41:50.170Z,31.00
2018-05-29T16:44:18.508Z,30.90
2018-05-29T16:46:46.828Z,30.90
2018-05-29T16:49:15.272Z,30.80
2018-05-29T16:51:43.583Z,30.80
2018-05-29T16:54:13.026Z,30.70
2018-05-29T16:56:41.340Z,30.70
2018-05-29T16:59:10.459Z,30.60
2018-05-29T17:01:38.787Z,30.60
2018-05-29T17:04:07.103Z,30.60
2018-05-29T17:06:35.410Z,30.50
2018-05-29T17:09:03.746Z,30.50
2018-05-29T17:11:32.839Z,30.50
2018-05-29T17:14:01.187Z,30.50
2018-05-29T17:16:29.568Z,30.40
2018-05-29T17:18:57.953Z,30.40
2018-05-29T17:21:26.873Z,30.40
2018-05-29T17:23:55.460Z,30.30
2018-05-29T17:26:24.613Z,30.20
2018-05-29T17:28:52.945Z,30.20
2018-05-29T17:31:21.274Z,30.20
2018-05-29T17:33:49.600Z,30.10
2018-05-29T17:36:19.389Z,30.00
2018-05-29T17:38:47.768Z,30.00
2018-05-29T17:41:17.284Z,29.90
2018-05-29T17:43:45.603Z,29.90
2018-05-29T17:46:14.870Z,29.70
2018-05-29T17:48:43.494Z,29.70
2018-05-29T17:51:13.540Z,29.50
2018-05-29T17:53:41.914Z,29.60
2018-05-29T17:56:11.165Z,29.50
2018-05-29T17:58:39.716Z,29.40
2018-05-29T18:01:08.043Z,29.30
2018-05-29T18:03:36.574Z,29.30
2018-05-29T18:06:05.463Z,29.20
2018-05-29T18:08:34.299Z,29.10
2018-05-29T18:11:04.020Z,29.00
2018-05-29T18:13:33.192Z,29.00
2018-05-29T18:16:02.646Z,28.90
2018-05-29T18:18:32.964Z,28.80
2018-05-29T18:21:02.777Z,28.70
2018-05-29T18:23:31.394Z,28.70
2018-05-29T18:26:02.298Z,28.60
2018-05-29T18:28:30.883Z,28.60
2018-05-29T18:30:59.673Z,28.60
2018-05-29T18:33:28.875Z,28.40
2018-05-29T18:35:58.036Z,28.30
2018-05-29T18:38:26.431Z,28.30
2018-05-29T18:40:54.947Z,28.30
2018-05-29T18:43:24.282Z,28.10
2018-05-29T18:45:52.593Z,28.10
2018-05-29T18:48:20.946Z,28.00
2018-05-29T18:50:49.321Z,27.90
2018-05-29T18:53:18.468Z,27.70
2018-05-29T18:55:46.813Z,27.70
2018-05-29T18:58:15.896Z,27.50
2018-05-29T19:00:44.211Z,27.50
2018-05-29T19:03:12.569Z,27.40
2018-05-29T19:05:41.636Z,27.20
2018-05-29T19:08:09.993Z,27.20
2018-05-29T19:10:38.315Z,27.10
2018-05-29T19:13:06.691Z,27.00
2018-05-29T19:15:36.158Z,26.80
2018-05-29T19:18:05.429Z,26.70
2018-05-29T19:20:34.545Z,26.60
2018-05-29T19:23:03.166Z,26.60
2018-05-29T19:25:31.971Z,26.50
2018-05-29T19:28:00.457Z,26.40
2018-05-29T19:30:28.769Z,26.30
2018-05-29T19:32:57.181Z,26.20
2018-05-29T19:35:25.886Z,26.20
2018-05-29T19:37:54.236Z,26.10
2018-05-29T19:40:23.362Z,25.90
2018-05-29T19:42:51.689Z,25.90
2018-05-29T19:45:21.652Z,25.80
2018-05-29T19:47:50.055Z,25.80
2018-05-29T19:50:18.369Z,25.70
2018-05-29T19:52:46.690Z,25.70
2018-05-29T19:55:15.033Z,25.60
2018-05-29T19:57:43.369Z,25.50
2018-05-29T20:00:12.427Z,25.50
2018-05-29T20:02:40.827Z,25.40
2018-05-29T20:05:09.925Z,25.30
2018-05-29T20:07:39.071Z,25.20
2018-05-29T20:10:07.381Z,25.20
2018-05-29T20:12:35.720Z,25.20
2018-05-29T20:15:04.170Z,25.20
2018-05-29T20:17:33.736Z,25.10
2018-05-29T20:20:02.890Z,25.00
2018-05-29T20:22:32.004Z,25.00
2018-05-29T20:25:00.428Z,24.90
2018-05-29T20:27:28.770Z,24.90
2018-05-29T20:29:57.089Z,24.80
2018-05-29T20:32:25.408Z,24.80
2018-05-29T20:34:54.503Z,24.70
2018-05-29T20:37:23.595Z,24.70
2018-05-29T20:39:51.919Z,24.70
2018-05-29T20:42:20.560Z,24.70
2018-05-29T20:44:50.453Z,24.60
2018-05-29T20:47:19.855Z,24.50
2018-05-29T20:49:48.258Z,24.50
2018-05-29T20:52:16.628Z,24.50
2018-05-29T20:54:44.983Z,24.50
2018-05-29T20:57:13.323Z,24.40
2018-05-29T20:59:42.469Z,24.30
2018-05-29T21:02:11.967Z,24.30
2018-05-29T21:04:40.296Z,24.30
2018-05-29T21:07:08.617Z,24.30
2018-05-29T21:09:36.958Z,24.20
2018-05-29T21:12:05.304Z,24.20
2018-05-29T21:14:33.605Z,24.20
2018-05-29T21:17:02.082Z,24.30
2018-05-29T21:19:30.457Z,24.30
2018-05-29T21:21:58.817Z,24.30
2018-05-29T21:24:27.934Z,24.30
2018-05-29T21:26:56.812Z,24.20
2018-05-29T21:29:25.286Z,24.20
2018-05-29T21:31:53.633Z,24.20
2018-05-29T21:34:21.960Z,24.10
2018-05-29T21:36:50.305Z,24.10
2018-05-29T21:39:19.440Z,23.90
2018-05-29T21:41:47.760Z,23.90
2018-05-29T21:44:16.171Z,23.80
2018-05-29T21:46:44.547Z,23.70
2018-05-29T21:49:12.899Z,23.60
2018-05-29T21:51:41.234Z,23.50
2018-05-29T21:54:11.343Z,23.30
2018-05-29T21:56:39.693Z,23.30
2018-05-29T21:59:08.009Z,23.30
2018-05-29T22:01:37.075Z,23.10
2018-05-29T22:04:05.747Z,23.10
2018-05-29T22:06:34.063Z,23.10
2018-05-29T22:09:03.935Z,22.90
2018-05-29T22:11:32.300Z,22.90
2018-05-29T22:14:00.613Z,22.80
2018-05-29T22:16:28.967Z,22.70
2018-05-29T22:18:57.288Z,22.70
2018-05-29T22:21:25.649Z,22.60
2018-05-29T22:23:53.970Z,22.60
2018-05-29T22:26:22.298Z,22.60
2018-05-29T22:28:50.657Z,22.50
2018-05-29T22:31:19.757Z,22.40
2018-05-29T22:33:48.839Z,22.40
2018-05-29T22:36:17.948Z,22.30
2018-05-29T22:38:47.053Z,22.30
2018-05-29T22:41:16.139Z,22.20
2018-05-29T22:43:45.231Z,22.10
2018-05-29T22:46:13.569Z,22.10
2018-05-29T22:48:41.905Z,22.10
2018-05-29T22:51:10.219Z,22.00
2018-05-29T22:53:38.534Z,21.90
2018-05-29T22:56:06.846Z,21.80
2018-05-29T22:58:35.958Z,21.70
2018-05-29T23:01:05.046Z,21.60
2018-05-29T23:03:34.152Z,21.60
2018-05-29T23:06:03.226Z,21.60
2018-05-29T23:08:31.557Z,21.50
2018-05-29T23:10:59.909Z,21.50
2018-05-29T23:13:29.737Z,21.40
2018-05-29T23:15:58.059Z,21.40
2018-05-29T23:18:26.427Z,21.40
2018-05-29T23:20:54.751Z,21.40
2018-05-29T23:23:23.069Z,21.30
2018-05-29T23:25:52.160Z,21.20
2018-05-29T23:28:21.249Z,21.10
2018-05-29T23:30:50.359Z,21.00
2018-05-29T23:33:19.443Z,20.90
2018-05-29T23:35:48.523Z,20.90
2018-05-29T23:38:17.450Z,20.90
2018-05-29T23:40:45.763Z,20.90
2018-05-29T23:43:15.030Z,20.80
2018-05-29T23:45:43.449Z,20.80
2018-05-29T23:48:13.343Z,20.70
2018-05-29T23:50:41.828Z,20.70
2018-05-29T23:53:11.231Z,20.60
2018-05-29T23:55:39.563Z,20.60
2018-05-29T23:58:08.596Z,20.60
